createdAt,value
2023-03-21T00:34:16.028Z,0
2023-03-21T00:36:14.989Z,0
2023-03-21T00:36:25.070Z,0
2023-03-21T00:37:24.892Z,0
2023-03-21T00:38:24.612Z,0
2023-03-21T00:39:24.865Z,0
2023-03-21T00:40:51.229Z,0
2023-03-21T04:45:53.866Z,4
2023-03-21T04:46:53.293Z,4
2023-03-21T04:47:53.714Z,0
2023-03-21T04:48:53.934Z,4
2023-03-21T04:49:54.073Z,0
2023-03-21T04:50:53.828Z,4
2023-03-21T04:51:54.066Z,4
2023-03-21T04:52:53.738Z,4
2023-03-21T04:53:54.044Z,4
2023-03-21T04:54:53.727Z,4
2023-03-21T04:55:58.265Z,4
2023-03-21T04:56:53.675Z,12
2023-03-21T04:57:53.668Z,12
2023-03-21T04:58:53.649Z,12
2023-03-21T04:59:53.905Z,12
2023-03-21T05:00:53.738Z,16
2023-03-21T05:01:53.975Z,20
2023-03-21T05:02:53.580Z,20
2023-03-21T05:03:53.783Z,28
2023-03-21T05:04:53.847Z,32
2023-03-21T05:05:53.553Z,32
2023-03-21T05:06:53.778Z,36
2023-03-21T05:07:53.522Z,48
2023-03-21T05:08:53.508Z,52
2023-03-21T05:09:53.466Z,60
2023-03-21T05:10:53.236Z,76
2023-03-21T05:11:53.455Z,92
2023-03-21T05:12:53.680Z,100
2023-03-21T05:13:53.434Z,112
2023-03-21T05:14:53.157Z,120
2023-03-21T05:15:53.630Z,128
2023-03-21T05:16:54.136Z,140
2023-03-21T05:17:53.695Z,152
2023-03-21T05:18:53.580Z,168
2023-03-21T05:19:53.320Z,184
2023-03-21T05:20:53.304Z,196
2023-03-21T05:21:53.293Z,208
2023-03-21T05:22:53.258Z,212
2023-03-21T05:23:53.522Z,216
2023-03-21T05:24:53.508Z,228
2023-03-21T05:25:53.514Z,232
2023-03-21T05:26:52.990Z,236
2023-03-21T05:27:53.193Z,240
2023-03-21T05:28:53.196Z,252
2023-03-21T05:29:53.174Z,264
2023-03-21T05:30:53.247Z,284
2023-03-21T05:31:53.419Z,304
2023-03-21T05:32:53.112Z,328
2023-03-21T05:33:53.477Z,356
2023-03-21T05:34:53.113Z,380
2023-03-21T05:35:53.311Z,404
2023-03-21T05:36:53.312Z,436
2023-03-21T05:37:52.795Z,472
2023-03-21T05:38:53.297Z,508
2023-03-21T05:39:53.308Z,540
2023-03-21T05:40:52.759Z,564
2023-03-21T05:41:52.994Z,580
2023-03-21T05:42:52.979Z,584
2023-03-21T05:43:52.713Z,584
2023-03-21T05:44:53.209Z,576
2023-03-21T05:45:53.521Z,576
2023-03-21T05:46:53.162Z,600
2023-03-21T05:47:53.015Z,628
2023-03-21T05:48:52.880Z,668
2023-03-21T05:49:53.211Z,720
2023-03-21T05:50:53.109Z,772
2023-03-21T05:51:53.088Z,832
2023-03-21T05:52:52.829Z,912
2023-03-21T05:53:52.829Z,1012
2023-03-21T05:54:52.573Z,1120
2023-03-21T05:55:52.776Z,1224
2023-03-21T05:56:52.534Z,1264
2023-03-21T05:57:52.749Z,1272
2023-03-21T05:58:52.478Z,1308
2023-03-21T05:59:52.758Z,1404
2023-03-21T06:00:52.538Z,1440
2023-03-21T06:01:52.962Z,1344
2023-03-21T06:02:52.695Z,1252
2023-03-21T06:03:53.328Z,1160
2023-03-21T06:04:52.646Z,1096
2023-03-21T06:05:52.977Z,1064
2023-03-21T06:06:52.999Z,1036
2023-03-21T06:07:52.448Z,984
2023-03-21T06:08:52.970Z,948
2023-03-21T06:09:52.956Z,952
2023-03-21T06:10:52.825Z,1032
2023-03-21T06:11:52.666Z,1276
2023-03-21T06:12:52.654Z,1596
2023-03-21T06:13:52.660Z,1764
2023-03-21T06:14:52.861Z,1788
2023-03-21T06:15:52.805Z,1844
2023-03-21T06:16:52.847Z,1908
2023-03-21T06:17:52.312Z,1928
2023-03-21T06:18:52.302Z,1932
2023-03-21T06:19:52.545Z,1876
2023-03-21T06:20:52.770Z,1796
2023-03-21T06:21:52.864Z,1840
2023-03-21T06:22:52.521Z,1968
2023-03-21T06:23:52.757Z,2108
2023-03-21T06:24:52.737Z,2256
2023-03-21T06:25:52.728Z,2432
2023-03-21T06:26:52.478Z,2808
2023-03-21T06:27:52.671Z,3292
2023-03-21T06:28:52.818Z,3488
2023-03-21T06:29:52.300Z,3236
2023-03-21T06:30:52.574Z,2960
2023-03-21T06:31:52.974Z,3052
2023-03-21T06:32:52.754Z,3388
2023-03-21T06:33:52.511Z,3540
2023-03-21T06:34:52.742Z,3672
2023-03-21T06:35:52.682Z,4000
2023-03-21T06:36:52.450Z,4076
2023-03-21T06:37:52.802Z,4004
2023-03-21T06:38:52.678Z,4064
2023-03-21T06:39:53.236Z,4052
2023-03-21T06:40:52.393Z,4004
2023-03-21T06:41:52.366Z,4124
2023-03-21T06:42:52.608Z,4104
2023-03-21T06:43:52.101Z,4260
2023-03-21T06:44:52.598Z,4380
2023-03-21T06:45:52.761Z,4288
2023-03-21T06:46:52.597Z,4380
2023-03-21T06:47:52.795Z,4528
2023-03-21T06:48:52.538Z,4720
2023-03-21T06:49:52.021Z,5168
2023-03-21T06:50:52.261Z,6168
2023-03-21T06:51:52.222Z,6476
2023-03-21T06:52:52.222Z,6224
2023-03-21T06:53:52.584Z,5508
2023-03-21T06:54:52.190Z,5332
2023-03-21T06:55:51.662Z,5460
2023-03-21T06:56:52.157Z,5288
2023-03-21T06:57:52.412Z,4948
2023-03-21T06:58:52.446Z,5136
2023-03-21T06:59:51.930Z,6000
2023-03-21T07:00:52.533Z,5604
2023-03-21T07:01:52.105Z,4748
2023-03-21T07:02:56.001Z,4660
2023-03-21T07:03:52.316Z,4612
2023-03-21T07:04:52.058Z,4988
2023-03-21T07:05:52.304Z,4924
2023-03-21T07:06:52.292Z,5320
2023-03-21T07:07:52.325Z,5664
2023-03-21T07:08:52.002Z,6024
2023-03-21T07:09:52.346Z,6216
2023-03-21T07:10:52.640Z,6416
2023-03-21T07:11:52.228Z,5844
2023-03-21T07:12:52.213Z,5508
2023-03-21T07:13:51.922Z,5404
2023-03-21T07:14:51.654Z,5860
2023-03-21T07:15:51.902Z,5844
2023-03-21T07:16:52.143Z,6052
2023-03-21T07:17:52.125Z,6080
2023-03-21T07:18:52.308Z,6404
2023-03-21T07:19:52.255Z,6240
2023-03-21T07:20:51.864Z,5628
2023-03-21T07:21:51.303Z,5544
2023-03-21T07:22:51.811Z,5700
2023-03-21T07:23:52.057Z,5768
2023-03-21T07:25:09.123Z,4880
2023-03-21T07:25:51.991Z,4512
2023-03-21T07:26:51.752Z,4676
2023-03-21T07:27:51.725Z,5284
2023-03-21T07:28:51.724Z,5792
2023-03-21T07:29:51.710Z,5940
2023-03-21T07:30:51.961Z,6076
2023-03-21T07:31:52.159Z,6392
2023-03-21T07:32:51.672Z,6936
2023-03-21T07:33:51.694Z,6672
2023-03-21T07:34:51.903Z,5972
2023-03-21T07:35:52.010Z,5936
2023-03-21T07:36:51.625Z,6752
2023-03-21T07:37:51.866Z,7388
2023-03-21T07:38:51.889Z,6592
2023-03-21T07:39:51.593Z,4780
2023-03-21T07:40:51.908Z,5128
2023-03-21T07:41:51.577Z,5884
2023-03-21T07:42:51.354Z,5880
2023-03-21T07:43:51.819Z,5688
2023-03-21T07:44:51.303Z,6056
2023-03-21T07:45:51.881Z,6248
2023-03-21T07:46:51.755Z,6396
2023-03-21T07:47:51.562Z,7132
2023-03-21T07:48:51.476Z,7988
2023-03-21T07:49:51.464Z,8716
2023-03-21T07:50:51.437Z,8040
2023-03-21T07:51:51.442Z,8268
2023-03-21T07:52:51.410Z,8488
2023-03-21T07:53:51.387Z,7768
2023-03-21T07:54:51.382Z,7340
2023-03-21T07:55:52.372Z,7856
2023-03-21T07:56:52.069Z,8628
2023-03-21T07:57:52.307Z,9484
2023-03-21T07:58:51.711Z,9548
2023-03-21T07:59:51.689Z,8336
2023-03-21T08:00:51.930Z,7308
2023-03-21T08:01:51.677Z,7488
2023-03-21T08:02:51.900Z,8064
2023-03-21T08:03:52.393Z,8160
2023-03-21T08:04:51.883Z,7584
2023-03-21T08:05:51.872Z,7060
2023-03-21T08:06:51.910Z,6700
2023-03-21T08:07:52.105Z,6680
2023-03-21T08:08:51.831Z,6144
2023-03-21T08:09:51.570Z,5496
2023-03-21T08:10:52.067Z,4656
2023-03-21T08:11:52.056Z,4092
2023-03-21T08:12:52.117Z,3588
2023-03-21T08:13:51.552Z,3228
2023-03-21T08:14:51.765Z,2972
2023-03-21T08:15:51.535Z,2940
2023-03-21T08:16:51.712Z,2932
2023-03-21T08:17:52.393Z,3680
2023-03-21T08:18:52.343Z,4328
2023-03-21T08:19:52.326Z,5496
2023-03-21T08:20:52.036Z,6872
2023-03-21T08:21:52.640Z,6728
2023-03-21T08:22:52.320Z,6456
2023-03-21T08:23:52.530Z,6116
2023-03-21T08:24:52.255Z,6532
2023-03-21T08:25:52.281Z,6644
2023-03-21T08:26:52.286Z,6648
2023-03-21T08:27:52.220Z,6796
2023-03-21T08:28:52.579Z,6852
2023-03-21T08:29:52.215Z,6688
2023-03-21T08:30:52.219Z,6464
2023-03-21T08:31:52.183Z,6160
2023-03-21T08:32:52.422Z,5772
2023-03-21T08:33:52.160Z,5568
2023-03-21T08:34:52.133Z,5336
2023-03-21T08:35:52.728Z,5244
2023-03-21T08:36:52.113Z,4528
2023-03-21T08:37:52.113Z,3876
2023-03-21T08:38:52.101Z,3740
2023-03-21T08:39:52.772Z,3336
2023-03-21T08:40:51.901Z,2952
2023-03-21T08:41:51.836Z,2852
2023-03-21T08:42:52.323Z,2828
2023-03-21T08:43:52.048Z,2752
2023-03-21T08:44:52.385Z,3072
2023-03-21T08:45:52.048Z,3076
2023-03-21T08:46:52.088Z,2924
2023-03-21T08:47:52.580Z,2952
2023-03-21T08:48:52.281Z,2984
2023-03-21T08:49:51.977Z,2928
2023-03-21T08:50:51.961Z,2900
2023-03-21T08:51:51.969Z,3148
2023-03-21T08:52:51.985Z,3744
2023-03-21T08:53:52.217Z,3624
2023-03-21T08:54:51.670Z,3156
2023-03-21T08:55:51.677Z,3412
2023-03-21T08:56:51.651Z,3752
2023-03-21T08:57:51.902Z,3456
2023-03-21T08:58:52.235Z,3196
2023-03-21T08:59:51.887Z,3076
2023-03-21T09:00:52.243Z,2956
2023-03-21T09:01:52.237Z,2872
2023-03-21T09:02:52.128Z,2864
2023-03-21T09:03:51.835Z,2916
2023-03-21T09:04:52.292Z,2932
2023-03-21T09:05:51.537Z,3696
2023-03-21T09:06:51.525Z,3920
2023-03-21T09:07:52.065Z,3976
2023-03-21T09:08:51.742Z,3780
2023-03-21T09:10:24.688Z,3668
2023-03-21T09:10:51.747Z,3852
2023-03-21T09:11:54.834Z,3568
2023-03-21T09:12:51.778Z,3592
2023-03-21T09:13:51.686Z,3968
2023-03-21T09:14:51.943Z,4480
2023-03-21T09:15:51.521Z,4620
2023-03-21T09:16:52.030Z,4380
2023-03-21T09:17:51.932Z,4104
2023-03-21T09:18:51.642Z,3796
2023-03-21T09:19:51.470Z,3924
2023-03-21T09:20:51.637Z,4304
2023-03-21T09:21:51.875Z,4684
2023-03-21T09:22:52.021Z,4872
2023-03-21T09:23:52.019Z,5028
2023-03-21T09:24:51.982Z,5020
2023-03-21T09:25:51.964Z,5064
2023-03-21T09:26:51.749Z,5136
2023-03-21T09:27:51.706Z,5660
2023-03-21T09:28:51.678Z,6060
2023-03-21T09:29:51.672Z,6284
2023-03-21T09:30:52.070Z,5968
2023-03-21T09:31:52.108Z,5556
2023-03-21T09:32:51.763Z,5220
2023-03-21T09:33:51.839Z,5064
2023-03-21T09:34:51.864Z,4680
2023-03-21T09:35:54.505Z,4288
2023-03-21T09:36:51.894Z,4104
2023-03-21T09:37:51.086Z,3936
2023-03-21T09:38:51.318Z,3700
2023-03-21T09:39:51.571Z,3756
2023-03-21T09:40:51.560Z,3556
2023-03-21T09:41:51.806Z,3280
2023-03-21T09:42:51.800Z,2972
2023-03-21T09:43:51.810Z,2884
2023-03-21T09:44:52.538Z,2548
2023-03-21T09:45:52.253Z,2480
2023-03-21T09:46:52.679Z,2512
2023-03-21T09:47:52.774Z,2648
2023-03-21T09:49:03.456Z,2672
2023-03-21T09:49:56.511Z,2684
2023-03-21T09:50:52.463Z,2704
2023-03-21T09:51:52.436Z,2660
2023-03-21T09:52:52.830Z,2572
2023-03-21T09:53:52.407Z,2520
2023-03-21T09:54:52.400Z,2508
2023-03-21T09:55:52.648Z,2512
2023-03-21T09:56:52.609Z,2516
2023-03-21T09:57:52.613Z,2504
2023-03-21T09:58:52.438Z,2508
2023-03-21T09:59:52.101Z,2516
2023-03-21T10:00:52.564Z,2524
2023-03-21T10:01:52.771Z,2532
2023-03-21T10:02:52.478Z,2548
2023-03-21T10:03:52.069Z,2536
2023-03-21T10:04:52.820Z,2540
2023-03-21T10:05:52.964Z,2540
2023-03-21T10:06:52.268Z,2560
2023-03-21T10:07:52.628Z,2564
2023-03-21T10:08:52.236Z,2528
2023-03-21T10:09:52.687Z,2440
2023-03-21T10:10:52.492Z,2460
2023-03-21T10:11:51.700Z,2444
2023-03-21T10:12:52.211Z,2496
2023-03-21T10:13:51.938Z,2572
2023-03-21T10:14:51.945Z,2552
2023-03-21T10:15:52.413Z,2540
2023-03-21T10:16:52.842Z,2536
2023-03-21T10:17:52.424Z,2520
2023-03-21T10:18:52.149Z,2528
2023-03-21T10:19:52.290Z,2536
2023-03-21T10:20:52.689Z,2544
2023-03-21T10:22:08.900Z,2560
2023-03-21T10:22:52.108Z,2564
2023-03-21T10:23:52.097Z,2600
2023-03-21T10:24:52.363Z,2668
2023-03-21T10:25:52.223Z,2724
2023-03-21T10:26:51.820Z,2748
2023-03-21T10:27:52.072Z,2776
2023-03-21T10:29:00.264Z,2820
2023-03-21T10:29:52.361Z,2880
2023-03-21T10:30:51.760Z,2960
2023-03-21T10:31:52.330Z,3000
2023-03-21T10:32:52.497Z,3116
2023-03-21T10:33:51.986Z,3272
2023-03-21T10:34:52.001Z,3356
2023-03-21T10:35:51.883Z,3516
2023-03-21T10:36:52.330Z,3672
2023-03-21T10:37:51.981Z,3724
2023-03-21T10:38:51.966Z,3848
2023-03-21T10:39:51.958Z,3920
2023-03-21T10:40:51.672Z,3932
2023-03-21T10:41:51.666Z,3932
2023-03-21T10:42:51.912Z,3976
2023-03-21T10:43:52.168Z,4100
2023-03-21T10:44:51.652Z,4328
2023-03-21T10:45:52.367Z,4420
2023-03-21T10:46:52.867Z,4416
2023-03-21T10:47:53.097Z,4476
2023-03-21T10:48:52.791Z,4540
2023-03-21T10:50:15.515Z,4564
2023-03-21T10:50:51.906Z,4520
2023-03-21T10:51:53.564Z,4564
2023-03-21T10:52:51.958Z,4564
2023-03-21T10:53:52.140Z,4608
2023-03-21T10:54:51.802Z,4548
2023-03-21T10:55:51.790Z,4324
2023-03-21T10:56:51.772Z,4300
2023-03-21T10:57:52.109Z,4244
2023-03-21T10:58:52.052Z,4256
2023-03-21T10:59:51.748Z,4316
2023-03-21T11:00:52.078Z,4396
2023-03-21T11:01:51.865Z,4500
2023-03-21T11:02:52.409Z,4624
2023-03-21T11:03:51.983Z,4692
2023-03-21T11:04:51.979Z,4676
2023-03-21T11:05:51.992Z,4772
2023-03-21T11:06:51.738Z,4824
2023-03-21T11:07:51.676Z,4792
2023-03-21T11:08:52.012Z,4700
2023-03-21T11:09:54.930Z,4604
2023-03-21T11:10:51.671Z,4548
2023-03-21T11:11:51.649Z,4640
2023-03-21T11:12:51.895Z,4764
2023-03-21T11:13:51.627Z,5000
2023-03-21T11:14:51.897Z,4900
2023-03-21T11:15:51.647Z,4868
2023-03-21T11:16:52.188Z,4856
2023-03-21T11:17:51.615Z,4868
2023-03-21T11:18:51.392Z,4752
2023-03-21T11:19:51.860Z,4720
2023-03-21T11:20:51.108Z,4908
2023-03-21T11:21:51.582Z,4716
2023-03-21T11:22:51.818Z,4820
2023-03-21T11:23:51.570Z,4708
2023-03-21T11:24:51.886Z,4752
2023-03-21T11:25:51.851Z,4888
2023-03-21T11:26:51.792Z,5060
2023-03-21T11:27:51.844Z,5164
2023-03-21T11:28:51.515Z,5492
2023-03-21T11:29:51.014Z,5188
2023-03-21T11:30:51.759Z,5028
2023-03-21T11:31:51.743Z,4992
2023-03-21T11:32:51.738Z,5048
2023-03-21T11:33:51.736Z,5228
2023-03-21T11:34:51.518Z,5404
2023-03-21T11:35:51.883Z,5664
2023-03-21T11:36:51.717Z,5520
2023-03-21T11:37:51.474Z,5420
2023-03-21T11:38:51.435Z,5176
2023-03-21T11:39:51.450Z,5060
2023-03-21T11:40:51.586Z,5104
2023-03-21T11:41:51.601Z,5260
2023-03-21T11:42:51.382Z,5460
2023-03-21T11:43:51.990Z,5596
2023-03-21T11:44:51.430Z,5516
2023-03-21T11:45:51.289Z,5536
2023-03-21T11:46:53.222Z,5628
2023-03-21T11:47:51.956Z,5532
2023-03-21T11:48:51.248Z,5488
2023-03-21T11:50:04.488Z,5504
2023-03-21T11:50:51.084Z,5468
2023-03-21T11:51:51.076Z,5548
2023-03-21T11:52:51.324Z,5560
2023-03-21T11:53:51.296Z,5668
2023-03-21T11:54:51.285Z,5496
2023-03-21T11:55:51.542Z,5364
2023-03-21T11:56:51.361Z,5312
2023-03-21T11:57:51.606Z,5308
2023-03-21T11:58:52.432Z,5204
2023-03-21T11:59:51.512Z,5116
2023-03-21T12:00:51.250Z,5172
2023-03-21T12:01:51.012Z,5196
2023-03-21T12:02:51.777Z,5256
2023-03-21T12:03:57.557Z,5172
2023-03-21T12:04:51.127Z,5020
2023-03-21T12:05:50.966Z,4820
2023-03-21T12:06:51.217Z,4716
2023-03-21T12:07:51.186Z,4580
2023-03-21T12:08:51.210Z,4548
2023-03-21T12:09:51.496Z,4488
2023-03-21T12:10:51.204Z,4428
2023-03-21T12:11:51.179Z,4232
2023-03-21T12:12:51.472Z,4252
2023-03-21T12:13:51.419Z,4224
2023-03-21T12:14:51.134Z,4192
2023-03-21T12:15:53.761Z,4372
2023-03-21T12:16:51.132Z,4412
2023-03-21T12:17:50.882Z,4444
2023-03-21T12:18:51.129Z,4296
2023-03-21T12:19:51.359Z,4236
2023-03-21T12:20:51.356Z,4184
2023-03-21T12:21:52.148Z,4224
2023-03-21T12:22:51.198Z,4240
2023-03-21T12:23:50.814Z,4248
2023-03-21T12:24:51.347Z,4208
2023-03-21T12:25:51.056Z,4176
2023-03-21T12:26:51.040Z,4124
2023-03-21T12:27:51.314Z,4076
2023-03-21T12:28:51.691Z,4052
2023-03-21T12:29:50.886Z,4080
2023-03-21T12:30:51.261Z,4308
2023-03-21T12:31:51.533Z,4440
2023-03-21T12:32:51.256Z,4620
2023-03-21T12:33:51.253Z,5044
2023-03-21T12:34:51.272Z,5596
2023-03-21T12:35:51.217Z,5884
2023-03-21T12:36:51.222Z,6080
2023-03-21T12:37:53.109Z,5720
2023-03-21T12:38:50.867Z,5432
2023-03-21T12:39:50.941Z,5164
2023-03-21T12:40:50.927Z,5108
2023-03-21T12:41:51.182Z,5204
2023-03-21T12:42:50.925Z,5344
2023-03-21T12:43:52.409Z,5504
2023-03-21T12:44:51.607Z,5556
2023-03-21T12:45:55.570Z,5876
2023-03-21T12:46:51.270Z,6000
2023-03-21T12:47:51.400Z,6016
2023-03-21T12:48:50.609Z,6124
2023-03-21T12:49:50.593Z,6344
2023-03-21T12:50:50.869Z,6736
2023-03-21T12:51:51.098Z,6784
2023-03-21T12:52:51.230Z,6764
2023-03-21T12:53:50.835Z,6584
2023-03-21T12:54:50.836Z,6476
2023-03-21T12:55:50.817Z,6308
2023-03-21T12:56:51.083Z,6244
2023-03-21T12:58:02.883Z,6192
2023-03-21T12:58:51.088Z,6168
2023-03-21T12:59:50.804Z,6172
2023-03-21T13:00:51.705Z,6220
2023-03-21T13:01:51.195Z,6352
2023-03-21T13:02:50.776Z,6552
2023-03-21T13:03:51.619Z,6824
2023-03-21T13:04:50.758Z,7036
2023-03-21T13:05:50.737Z,7256
2023-03-21T13:06:50.768Z,7668
2023-03-21T13:07:50.980Z,7888
2023-03-21T13:08:50.741Z,7908
2023-03-21T13:09:50.710Z,8088
2023-03-21T13:10:50.966Z,8064
2023-03-21T13:11:50.979Z,7916
2023-03-21T13:12:50.989Z,8216
2023-03-21T13:13:50.689Z,8328
2023-03-21T13:14:50.683Z,7756
2023-03-21T13:15:50.968Z,7480
2023-03-21T13:16:51.593Z,7580
2023-03-21T13:17:51.037Z,7716
2023-03-21T13:18:50.643Z,7764
2023-03-21T13:19:50.150Z,7772
2023-03-21T13:20:50.902Z,7544
2023-03-21T13:21:50.932Z,7356
2023-03-21T13:22:50.356Z,7396
2023-03-21T13:23:50.622Z,7208
2023-03-21T13:24:50.368Z,6984
2023-03-21T13:25:50.871Z,6820
2023-03-21T13:26:50.874Z,6740
2023-03-21T13:27:50.588Z,6764
2023-03-21T13:28:50.866Z,6828
2023-03-21T13:29:50.898Z,6832
2023-03-21T13:30:51.227Z,6820
2023-03-21T13:32:02.329Z,6860
2023-03-21T13:32:51.153Z,6900
2023-03-21T13:33:50.562Z,6964
2023-03-21T13:34:50.820Z,6976
2023-03-21T13:35:50.772Z,7060
2023-03-21T13:36:50.274Z,7108
2023-03-21T13:37:50.798Z,7156
2023-03-21T13:38:50.265Z,7192
2023-03-21T13:39:50.602Z,7136
2023-03-21T13:40:50.516Z,7036
2023-03-21T13:41:50.758Z,6968
2023-03-21T13:42:50.792Z,6936
2023-03-21T13:43:50.264Z,6804
2023-03-21T13:44:52.659Z,6596
2023-03-21T13:45:50.485Z,6536
2023-03-21T13:47:01.219Z,6500
2023-03-21T13:47:51.267Z,6520
2023-03-21T13:49:03.731Z,6636
2023-03-21T13:49:50.554Z,6464
2023-03-21T13:50:50.445Z,6228
2023-03-21T13:51:50.426Z,6116
2023-03-21T13:52:50.157Z,5996
2023-03-21T13:53:50.670Z,5984
2023-03-21T13:54:50.414Z,6084
2023-03-21T13:55:50.153Z,6280
2023-03-21T13:56:50.688Z,6440
2023-03-21T13:57:50.416Z,6452
2023-03-21T13:58:50.408Z,6404
2023-03-21T13:59:50.157Z,6360
2023-03-21T14:00:50.628Z,6316
2023-03-21T14:01:50.568Z,6256
2023-03-21T14:02:50.590Z,6252
2023-03-21T14:03:50.996Z,6504
2023-03-21T14:05:12.156Z,6252
2023-03-21T14:05:50.700Z,6032
2023-03-21T14:06:50.523Z,5736
2023-03-21T14:07:52.639Z,5384
2023-03-21T14:08:50.338Z,4924
2023-03-21T14:09:50.047Z,4560
2023-03-21T14:10:50.312Z,4252
2023-03-21T14:12:03.799Z,4024
2023-03-21T14:12:50.025Z,3936
2023-03-21T14:13:58.473Z,3876
2023-03-21T14:14:50.527Z,4060
2023-03-21T14:16:05.718Z,3892
2023-03-21T14:17:50.259Z,3500
2023-03-21T14:19:01.315Z,3392
2023-03-21T14:19:50.243Z,3568
2023-03-21T14:20:50.484Z,4012
2023-03-21T14:21:50.603Z,4144
2023-03-21T14:22:50.471Z,3804
2023-03-21T14:23:50.206Z,3568
2023-03-21T14:24:50.460Z,3400
2023-03-21T14:25:55.545Z,3240
2023-03-21T14:26:50.599Z,3716
2023-03-21T14:27:50.434Z,3832
2023-03-21T14:28:50.181Z,3676
2023-03-21T14:29:50.431Z,3316
2023-03-21T14:30:50.583Z,3184
2023-03-21T14:31:50.395Z,3160
2023-03-21T14:32:50.418Z,3216
2023-03-21T14:33:50.151Z,3416
2023-03-21T14:34:51.135Z,3256
2023-03-21T14:35:50.330Z,3052
2023-03-21T14:37:03.362Z,2840
2023-03-21T14:37:50.262Z,3084
2023-03-21T14:38:50.108Z,2984
2023-03-21T14:39:50.073Z,2836
2023-03-21T14:40:50.475Z,2992
2023-03-21T14:41:50.072Z,3112
2023-03-21T14:42:50.334Z,2920
2023-03-21T14:43:50.302Z,2780
2023-03-21T14:45:05.681Z,2536
2023-03-21T14:45:50.098Z,2376
2023-03-21T14:46:49.915Z,2324
2023-03-21T14:47:50.290Z,2340
2023-03-21T14:48:50.011Z,2440
2023-03-21T14:49:50.295Z,2524
2023-03-21T14:50:50.618Z,2588
2023-03-21T14:51:50.028Z,2744
2023-03-21T14:52:49.753Z,2908
2023-03-21T14:53:50.363Z,3164
2023-03-21T14:54:49.768Z,3308
2023-03-21T14:55:49.964Z,3416
2023-03-21T14:56:50.227Z,3496
2023-03-21T14:57:50.213Z,3656
2023-03-21T14:58:49.679Z,3448
2023-03-21T14:59:50.179Z,3216
2023-03-21T15:00:50.247Z,3172
2023-03-21T15:01:50.122Z,3192
2023-03-21T15:02:50.156Z,3228
2023-03-21T15:03:49.922Z,3264
2023-03-21T15:04:50.285Z,3296
2023-03-21T15:05:49.884Z,3324
2023-03-21T15:06:50.234Z,3348
2023-03-21T15:07:49.860Z,3348
2023-03-21T15:08:50.102Z,3328
2023-03-21T15:09:50.002Z,3324
2023-03-21T15:11:08.248Z,3348
2023-03-21T15:11:49.573Z,3396
2023-03-21T15:12:50.072Z,3456
2023-03-21T15:13:49.826Z,3520
2023-03-21T15:14:50.813Z,3596
2023-03-21T15:15:50.827Z,3636
2023-03-21T15:16:50.040Z,3708
2023-03-21T15:17:49.784Z,3768
2023-03-21T15:18:49.874Z,3828
2023-03-21T15:19:49.250Z,3840
2023-03-21T15:20:50.070Z,3824
2023-03-21T15:21:49.743Z,3780
2023-03-21T15:22:50.135Z,3724
2023-03-21T15:23:50.021Z,3680
2023-03-21T15:24:49.758Z,3644
2023-03-21T15:25:49.721Z,3608
2023-03-21T15:26:49.738Z,3564
2023-03-21T15:27:49.946Z,3532
2023-03-21T15:28:49.949Z,3504
2023-03-21T15:29:49.717Z,3508
2023-03-21T15:30:49.939Z,3532
2023-03-21T15:31:50.137Z,3552
2023-03-21T15:32:51.634Z,3576
2023-03-21T15:33:49.894Z,3580
2023-03-21T15:34:49.431Z,3572
2023-03-21T15:35:50.570Z,3552
2023-03-21T15:36:49.873Z,3508
2023-03-21T15:37:49.107Z,3444
2023-03-21T15:38:49.995Z,3388
2023-03-21T15:39:49.589Z,3344
2023-03-21T15:40:49.829Z,3284
2023-03-21T15:41:49.962Z,3208
2023-03-21T15:42:49.806Z,3120
2023-03-21T15:43:49.564Z,3052
2023-03-21T15:44:49.869Z,2996
2023-03-21T15:45:49.970Z,2964
2023-03-21T15:46:49.832Z,2952
2023-03-21T15:47:49.938Z,2948
2023-03-21T15:48:49.784Z,2976
2023-03-21T15:49:49.251Z,2988
2023-03-21T15:50:49.349Z,2972
2023-03-21T15:51:49.522Z,2932
2023-03-21T15:52:49.469Z,2868
2023-03-21T15:53:49.718Z,2804
2023-03-21T15:54:49.872Z,2752
2023-03-21T15:55:49.709Z,2704
2023-03-21T15:56:49.721Z,2648
2023-03-21T15:57:49.611Z,2592
2023-03-21T15:58:49.459Z,2536
2023-03-21T15:59:49.733Z,2476
2023-03-21T16:00:51.318Z,2412
2023-03-21T16:01:49.934Z,2340
2023-03-21T16:02:49.472Z,2276
2023-03-21T16:03:48.874Z,2212
2023-03-21T16:04:49.111Z,2172
2023-03-21T16:05:49.633Z,2140
2023-03-21T16:06:49.078Z,2116
2023-03-21T16:07:49.587Z,2088
2023-03-21T16:08:49.603Z,2052
2023-03-21T16:09:49.093Z,2016
2023-03-21T16:10:49.921Z,1968
2023-03-21T16:11:49.613Z,1920
2023-03-21T16:12:49.629Z,1872
2023-03-21T16:13:49.178Z,1828
2023-03-21T16:14:49.010Z,1788
2023-03-21T16:15:49.663Z,1752
2023-03-21T16:16:49.961Z,1712
2023-03-21T16:17:49.496Z,1676
2023-03-21T16:18:49.497Z,1636
2023-03-21T16:19:49.487Z,1596
2023-03-21T16:20:49.256Z,1556
2023-03-21T16:21:49.210Z,1516
2023-03-21T16:22:49.185Z,1484
2023-03-21T16:23:49.455Z,1456
2023-03-21T16:24:49.186Z,1424
2023-03-21T16:25:49.205Z,1396
2023-03-21T16:26:49.515Z,1368
2023-03-21T16:27:49.475Z,1344
2023-03-21T16:28:49.145Z,1320
2023-03-21T16:29:49.262Z,1296
2023-03-21T16:30:49.162Z,1268
2023-03-21T16:31:49.457Z,1240
2023-03-21T16:32:48.877Z,1216
2023-03-21T16:33:49.359Z,1188
2023-03-21T16:34:49.145Z,1164
2023-03-21T16:35:49.568Z,1148
2023-03-21T16:36:49.040Z,1136
2023-03-21T16:37:49.057Z,1120
2023-03-21T16:38:49.054Z,1104
2023-03-21T16:39:49.192Z,1084
2023-03-21T16:40:50.041Z,1064
2023-03-21T16:41:49.019Z,1040
2023-03-21T16:42:49.414Z,1020
2023-03-21T16:43:49.022Z,996
2023-03-21T16:44:48.987Z,972
2023-03-21T16:45:49.361Z,944
2023-03-21T16:46:49.247Z,908
2023-03-21T16:47:49.271Z,876
2023-03-21T16:48:48.738Z,848
2023-03-21T16:49:49.006Z,820
2023-03-21T16:50:48.968Z,788
2023-03-21T16:51:48.936Z,756
2023-03-21T16:52:48.960Z,724
2023-03-21T16:53:49.178Z,692
2023-03-21T16:54:49.164Z,656
2023-03-21T16:55:49.151Z,612
2023-03-21T16:56:48.896Z,580
2023-03-21T16:57:48.859Z,548
2023-03-21T16:58:49.007Z,516
2023-03-21T16:59:48.867Z,484
2023-03-21T17:00:49.160Z,456
2023-03-21T17:01:49.200Z,432
2023-03-21T17:02:48.851Z,404
2023-03-21T17:03:49.226Z,380
2023-03-21T17:04:48.805Z,356
2023-03-21T17:05:48.534Z,336
2023-03-21T17:06:49.030Z,312
2023-03-21T17:07:48.760Z,296
2023-03-21T17:08:49.010Z,276
2023-03-21T17:09:48.735Z,256
2023-03-21T17:10:48.724Z,240
2023-03-21T17:11:48.477Z,220
2023-03-21T17:12:48.977Z,204
2023-03-21T17:13:48.968Z,188
2023-03-21T17:14:49.101Z,172
2023-03-21T17:15:48.706Z,160
2023-03-21T17:16:48.885Z,148
2023-03-21T17:17:48.970Z,136
2023-03-21T17:18:48.135Z,124
2023-03-21T17:19:48.899Z,112
2023-03-21T17:20:48.970Z,104
2023-03-21T17:21:48.932Z,92
2023-03-21T17:22:48.608Z,88
2023-03-21T17:23:48.599Z,80
2023-03-21T17:24:48.860Z,72
2023-03-21T17:25:48.307Z,68
2023-03-21T17:26:48.576Z,60
2023-03-21T17:27:48.297Z,56
2023-03-21T17:28:48.806Z,52
2023-03-21T17:29:49.091Z,40
2023-03-21T17:30:49.599Z,36
2023-03-21T17:31:48.779Z,36
2023-03-21T17:32:48.737Z,28
2023-03-21T17:33:48.521Z,24
2023-03-21T17:34:47.947Z,20
2023-03-21T17:35:48.901Z,20
2023-03-21T17:36:48.746Z,16
2023-03-21T17:37:48.765Z,12
2023-03-21T17:38:48.682Z,12
2023-03-21T17:39:48.408Z,8
2023-03-21T17:40:50.440Z,8
2023-03-21T17:41:48.184Z,8
2023-03-21T17:42:48.372Z,4
2023-03-21T17:43:48.622Z,4
2023-03-21T17:44:48.615Z,4
2023-03-21T17:45:48.621Z,4
2023-03-21T17:46:51.114Z,0
2023-03-21T17:47:48.805Z,4
2023-03-21T17:48:48.570Z,4
2023-03-21T17:49:48.332Z,0
2023-03-21T17:50:48.077Z,0
2023-03-21T17:51:48.346Z,0
2023-03-21T17:52:50.290Z,0
2023-03-21T17:53:48.502Z,0
2023-03-21T17:54:48.494Z,0
2023-03-21T17:55:48.492Z,0
2023-03-21T17:56:47.960Z,0
2023-03-21T17:57:48.462Z,0
2023-03-21T17:58:48.192Z,0
2023-03-21T17:59:48.211Z,0
2023-03-21T18:00:48.575Z,0
2023-03-21T18:01:48.691Z,0
2023-03-21T18:02:48.475Z,0
2023-03-21T18:03:48.477Z,0
2023-03-21T18:04:48.412Z,0
2023-03-21T18:05:48.396Z,0
2023-03-21T18:06:48.401Z,0
2023-03-21T18:08:18.169Z,0